ATX2132 RPLL-RPVM
Flight info
| Callsign | ATX2132 |
|---|---|
| Flight time | 1h 26m |
| Altitude | 17000 |
| Route | IPATA2R IPATA B462 MASBA W8 BATAY BATAY3P |
| Aircraft | AT76/M-SDFGIRY/S |
Departure
| Time | 2026-05-08 02:50 |
|---|---|
| Airport | Ninoy Aquino International Airport (RPLL) |
Arrival
| Time | 2026-05-08 04:16 |
|---|---|
| Airport | Mactan Cebu International Airport (RPVM) |
| Time | Latitude | Longitude | Altitude | Speed | Heading |
|---|---|---|---|---|---|
| 2026-05-08 02:18 | 14.52460 | 121.00687 | 65 ft | 0 kts | 45° |
| 2026-05-08 02:34 | 14.52451 | 121.00678 | 57 ft | 4 kts | 46° |
| 2026-05-08 02:34 | 14.52433 | 121.00657 | 60 ft | 4 kts | 50° |
| 2026-05-08 02:34 | 14.52417 | 121.00635 | 61 ft | 4 kts | 63° |
| 2026-05-08 02:34 | 14.52411 | 121.00619 | 61 ft | 4 kts | 87° |
| 2026-05-08 02:35 | 14.52414 | 121.00602 | 64 ft | 1 kts | 135° |
| 2026-05-08 02:35 | 14.52417 | 121.00599 | 64 ft | 0 kts | 135° |
| 2026-05-08 02:38 | 14.52409 | 121.00608 | 57 ft | 9 kts | 135° |
| 2026-05-08 02:38 | 14.52338 | 121.00681 | 62 ft | 12 kts | 135° |
| 2026-05-08 02:38 | 14.52267 | 121.00753 | 63 ft | 13 kts | 135° |
| 2026-05-08 02:39 | 14.52184 | 121.00762 | 65 ft | 14 kts | 184° |
| 2026-05-08 02:39 | 14.52091 | 121.00832 | 61 ft | 18 kts | 135° |
| 2026-05-08 02:39 | 14.52017 | 121.00907 | 64 ft | 12 kts | 135° |
| 2026-05-08 02:39 | 14.51968 | 121.00958 | 65 ft | 14 kts | 135° |
| 2026-05-08 02:40 | 14.51857 | 121.01074 | 66 ft | 28 kts | 134° |
| 2026-05-08 02:40 | 14.51753 | 121.01180 | 63 ft | 24 kts | 135° |
| 2026-05-08 02:40 | 14.51685 | 121.01249 | 66 ft | 2 kts | 134° |
| 2026-05-08 02:40 | 14.51612 | 121.01326 | 66 ft | 15 kts | 134° |
| 2026-05-08 02:41 | 14.51549 | 121.01390 | 60 ft | 23 kts | 135° |
| 2026-05-08 02:41 | 14.51430 | 121.01514 | 63 ft | 23 kts | 136° |
| 2026-05-08 02:41 | 14.51306 | 121.01640 | 59 ft | 29 kts | 135° |
| 2026-05-08 02:41 | 14.51197 | 121.01753 | 61 ft | 17 kts | 135° |
| 2026-05-08 02:42 | 14.51121 | 121.01830 | 65 ft | 12 kts | 135° |
| 2026-05-08 02:42 | 14.51102 | 121.01850 | 62 ft | 0 kts | 136° |
| 2026-05-08 02:42 | 14.51091 | 121.01861 | 65 ft | 5 kts | 135° |
| 2026-05-08 02:42 | 14.51053 | 121.01901 | 65 ft | 8 kts | 135° |
| 2026-05-08 02:43 | 14.51029 | 121.01915 | 65 ft | 2 kts | 168° |
| 2026-05-08 02:43 | 14.50950 | 121.01826 | 62 ft | 24 kts | 242° |
| 2026-05-08 02:43 | 14.50872 | 121.01686 | 62 ft | 22 kts | 240° |
| 2026-05-08 02:43 | 14.50821 | 121.01593 | 59 ft | 12 kts | 240° |
| 2026-05-08 02:44 | 14.50791 | 121.01540 | 63 ft | 30 kts | 238° |
| 2026-05-08 02:44 | 14.50739 | 121.01445 | 65 ft | 3 kts | 241° |
| 2026-05-08 02:44 | 14.50698 | 121.01372 | 60 ft | 14 kts | 240° |
| 2026-05-08 02:44 | 14.50649 | 121.01283 | 66 ft | 14 kts | 239° |
| 2026-05-08 02:45 | 14.50601 | 121.01198 | 61 ft | 14 kts | 239° |
| 2026-05-08 02:45 | 14.50550 | 121.01114 | 65 ft | 14 kts | 237° |
| 2026-05-08 02:45 | 14.50510 | 121.01041 | 63 ft | 5 kts | 244° |
| 2026-05-08 02:45 | 14.50479 | 121.00978 | 61 ft | 23 kts | 240° |
| 2026-05-08 02:46 | 14.50421 | 121.00875 | 61 ft | 16 kts | 240° |
| 2026-05-08 02:46 | 14.50365 | 121.00775 | 61 ft | 16 kts | 240° |
| 2026-05-08 02:46 | 14.50311 | 121.00680 | 62 ft | 13 kts | 241° |
| 2026-05-08 02:46 | 14.50233 | 121.00536 | 61 ft | 23 kts | 240° |
| 2026-05-08 02:47 | 14.50159 | 121.00403 | 64 ft | 20 kts | 239° |
| 2026-05-08 02:47 | 14.50094 | 121.00289 | 58 ft | 18 kts | 240° |
| 2026-05-08 02:47 | 14.50037 | 121.00183 | 59 ft | 15 kts | 240° |
| 2026-05-08 02:47 | 14.49980 | 121.00083 | 63 ft | 29 kts | 239° |
| 2026-05-08 02:48 | 14.49919 | 120.99978 | 62 ft | 13 kts | 228° |
| 2026-05-08 02:48 | 14.49849 | 120.99981 | 61 ft | 9 kts | 153° |
| 2026-05-08 02:48 | 14.49808 | 121.00042 | 66 ft | 12 kts | 74° |
| 2026-05-08 02:48 | 14.49823 | 121.00076 | 63 ft | 0 kts | 60° |
| 2026-05-08 02:49 | 14.49851 | 121.00126 | 62 ft | 32 kts | 60° |
| 2026-05-08 02:49 | 14.50059 | 121.00501 | 60 ft | 90 kts | 61° |
| 2026-05-08 02:49 | 14.50472 | 121.01208 | 118 ft | 133 kts | 60° |
| 2026-05-08 02:49 | 14.50922 | 121.02062 | 579 ft | 141 kts | 66° |
| 2026-05-08 02:50 | 14.51397 | 121.02955 | 1206 ft | 142 kts | 63° |
| 2026-05-08 02:50 | 14.51905 | 121.03826 | 1808 ft | 140 kts | 61° |
| 2026-05-08 02:50 | 14.52415 | 121.04680 | 2220 ft | 139 kts | 61° |
| 2026-05-08 02:50 | 14.52903 | 121.05533 | 2700 ft | 137 kts | 62° |
| 2026-05-08 02:51 | 14.53380 | 121.06388 | 3123 ft | 137 kts | 62° |
| 2026-05-08 02:51 | 14.53868 | 121.07245 | 3489 ft | 140 kts | 62° |
| 2026-05-08 02:51 | 14.54350 | 121.08112 | 3916 ft | 139 kts | 62° |
| 2026-05-08 02:51 | 14.54824 | 121.08983 | 4330 ft | 139 kts | 63° |
| 2026-05-08 02:52 | 14.55299 | 121.09848 | 4719 ft | 139 kts | 63° |
| 2026-05-08 02:52 | 14.55783 | 121.10744 | 4915 ft | 155 kts | 63° |
| 2026-05-08 02:52 | 14.56324 | 121.11782 | 5088 ft | 172 kts | 64° |
| 2026-05-08 02:52 | 14.56903 | 121.12882 | 5453 ft | 176 kts | 63° |
| 2026-05-08 02:53 | 14.57411 | 121.14031 | 5777 ft | 177 kts | 81° |
| 2026-05-08 02:53 | 14.57537 | 121.15291 | 6201 ft | 177 kts | 85° |
| 2026-05-08 02:53 | 14.57648 | 121.16557 | 6570 ft | 178 kts | 85° |
| 2026-05-08 02:53 | 14.57777 | 121.17837 | 6929 ft | 181 kts | 84° |
| 2026-05-08 02:54 | 14.57916 | 121.19130 | 7330 ft | 182 kts | 83° |
| 2026-05-08 02:54 | 14.58061 | 121.20428 | 7743 ft | 181 kts | 83° |
| 2026-05-08 02:54 | 14.58210 | 121.21731 | 8056 ft | 185 kts | 84° |
| 2026-05-08 02:54 | 14.58357 | 121.23039 | 8464 ft | 183 kts | 83° |
| 2026-05-08 02:55 | 14.58506 | 121.24344 | 8851 ft | 184 kts | 83° |
| 2026-05-08 02:55 | 14.58101 | 121.26850 | 9470 ft | 191 kts | 133° |
| 2026-05-08 02:55 | 14.57048 | 121.27711 | 9831 ft | 195 kts | 140° |
| 2026-05-08 02:56 | 14.55945 | 121.28509 | 10143 ft | 196 kts | 142° |
| 2026-05-08 02:56 | 14.54809 | 121.29303 | 10456 ft | 198 kts | 141° |
| 2026-05-08 02:56 | 14.53656 | 121.30121 | 10789 ft | 200 kts | 140° |
| 2026-05-08 02:56 | 14.52526 | 121.30961 | 11110 ft | 201 kts | 139° |
| 2026-05-08 02:57 | 14.51399 | 121.31825 | 11421 ft | 203 kts | 139° |
| 2026-05-08 02:57 | 14.50270 | 121.32704 | 11714 ft | 204 kts | 139° |
| 2026-05-08 02:57 | 14.49146 | 121.33582 | 12026 ft | 206 kts | 139° |
| 2026-05-08 02:57 | 14.48002 | 121.34479 | 12296 ft | 207 kts | 138° |
| 2026-05-08 02:58 | 14.46844 | 121.35368 | 12603 ft | 208 kts | 140° |
| 2026-05-08 02:58 | 14.45674 | 121.36264 | 12908 ft | 209 kts | 139° |
| 2026-05-08 02:58 | 14.44496 | 121.37163 | 13206 ft | 211 kts | 139° |
| 2026-05-08 02:58 | 14.43314 | 121.38065 | 13508 ft | 212 kts | 139° |
| 2026-05-08 02:59 | 14.42123 | 121.38979 | 13801 ft | 214 kts | 140° |
| 2026-05-08 02:59 | 14.40927 | 121.39891 | 14092 ft | 214 kts | 140° |
| 2026-05-08 02:59 | 14.39727 | 121.40805 | 14373 ft | 214 kts | 139° |
| 2026-05-08 02:59 | 14.38529 | 121.41728 | 14625 ft | 215 kts | 139° |
| 2026-05-08 03:00 | 14.37327 | 121.42652 | 14886 ft | 215 kts | 139° |
| 2026-05-08 03:00 | 14.36120 | 121.43572 | 15141 ft | 216 kts | 140° |
| 2026-05-08 03:00 | 14.35342 | 121.44165 | 15304 ft | 216 kts | 139° |
| 2026-05-08 03:00 | 14.34769 | 121.44605 | 15414 ft | 217 kts | 139° |
| 2026-05-08 03:01 | 14.33571 | 121.45520 | 15669 ft | 217 kts | 140° |
| 2026-05-08 03:01 | 14.32357 | 121.46446 | 15922 ft | 217 kts | 140° |
| 2026-05-08 03:01 | 14.31141 | 121.47375 | 16172 ft | 218 kts | 139° |
| 2026-05-08 03:01 | 14.29923 | 121.48308 | 16423 ft | 218 kts | 139° |
| 2026-05-08 03:02 | 14.28701 | 121.49246 | 16671 ft | 219 kts | 140° |
| 2026-05-08 03:02 | 14.27470 | 121.50188 | 16840 ft | 223 kts | 140° |
| 2026-05-08 03:02 | 14.26202 | 121.51155 | 16921 ft | 231 kts | 140° |
| 2026-05-08 03:02 | 14.24886 | 121.52157 | 16954 ft | 239 kts | 140° |
| 2026-05-08 03:03 | 14.23527 | 121.53196 | 16972 ft | 247 kts | 140° |
| 2026-05-08 03:03 | 14.22119 | 121.54265 | 16984 ft | 254 kts | 141° |
| 2026-05-08 03:03 | 14.20678 | 121.55361 | 16978 ft | 260 kts | 141° |
| 2026-05-08 03:03 | 14.19230 | 121.56464 | 16992 ft | 264 kts | 141° |
| 2026-05-08 03:04 | 14.17738 | 121.57602 | 16983 ft | 269 kts | 141° |
| 2026-05-08 03:04 | 14.16226 | 121.58755 | 16985 ft | 272 kts | 141° |
| 2026-05-08 03:04 | 14.14697 | 121.59918 | 16982 ft | 274 kts | 141° |
| 2026-05-08 03:04 | 14.13156 | 121.61090 | 16979 ft | 276 kts | 141° |
| 2026-05-08 03:05 | 14.11607 | 121.62271 | 16976 ft | 277 kts | 141° |
| 2026-05-08 03:05 | 14.10054 | 121.63453 | 16975 ft | 278 kts | 141° |
| 2026-05-08 03:05 | 14.08494 | 121.64639 | 16987 ft | 279 kts | 141° |
| 2026-05-08 03:05 | 14.06932 | 121.65830 | 16974 ft | 280 kts | 141° |
| 2026-05-08 03:06 | 14.05367 | 121.67028 | 16981 ft | 281 kts | 141° |
| 2026-05-08 03:06 | 14.03796 | 121.68229 | 16980 ft | 282 kts | 141° |
| 2026-05-08 03:06 | 14.02238 | 121.69416 | 16971 ft | 282 kts | 141° |
| 2026-05-08 03:06 | 14.00659 | 121.70621 | 16971 ft | 282 kts | 141° |
| 2026-05-08 03:07 | 13.99080 | 121.71826 | 16978 ft | 282 kts | 141° |
| 2026-05-08 03:07 | 13.97502 | 121.73029 | 16979 ft | 283 kts | 141° |
| 2026-05-08 03:07 | 13.95917 | 121.74236 | 16966 ft | 283 kts | 141° |
| 2026-05-08 03:07 | 13.94336 | 121.75440 | 16970 ft | 282 kts | 141° |
| 2026-05-08 03:08 | 13.92757 | 121.76642 | 16970 ft | 282 kts | 141° |
| 2026-05-08 03:08 | 13.91175 | 121.77847 | 16976 ft | 283 kts | 141° |
| 2026-05-08 03:08 | 13.89594 | 121.79053 | 16971 ft | 283 kts | 141° |
| 2026-05-08 03:08 | 13.88006 | 121.80265 | 16965 ft | 284 kts | 141° |
| 2026-05-08 03:09 | 13.86429 | 121.81482 | 16965 ft | 282 kts | 138° |
| 2026-05-08 03:09 | 13.85090 | 121.82941 | 16963 ft | 278 kts | 127° |
| 2026-05-08 03:09 | 13.83907 | 121.84513 | 16968 ft | 278 kts | 125° |
| 2026-05-08 03:09 | 13.82729 | 121.86091 | 16966 ft | 278 kts | 126° |
| 2026-05-08 03:10 | 13.81510 | 121.87635 | 16967 ft | 279 kts | 128° |
| 2026-05-08 03:10 | 13.80257 | 121.89160 | 16963 ft | 279 kts | 128° |
| 2026-05-08 03:10 | 13.79024 | 121.90669 | 16967 ft | 279 kts | 128° |
| 2026-05-08 03:10 | 13.77817 | 121.92146 | 16961 ft | 279 kts | 128° |
| 2026-05-08 03:11 | 13.76569 | 121.93675 | 16961 ft | 279 kts | 128° |
| 2026-05-08 03:11 | 13.75322 | 121.95203 | 16961 ft | 279 kts | 128° |
| 2026-05-08 03:11 | 13.74074 | 121.96732 | 16959 ft | 278 kts | 128° |
| 2026-05-08 03:11 | 13.72838 | 121.98236 | 16961 ft | 272 kts | 128° |
| 2026-05-08 03:12 | 13.71630 | 121.99718 | 16960 ft | 268 kts | 128° |
| 2026-05-08 03:12 | 13.70438 | 122.01183 | 16959 ft | 265 kts | 128° |
| 2026-05-08 03:12 | 13.69260 | 122.02625 | 16959 ft | 262 kts | 128° |
| 2026-05-08 03:12 | 13.68092 | 122.04053 | 16961 ft | 260 kts | 128° |
| 2026-05-08 03:13 | 13.66933 | 122.05472 | 16960 ft | 258 kts | 128° |
| 2026-05-08 03:13 | 13.65781 | 122.06882 | 16962 ft | 256 kts | 128° |
| 2026-05-08 03:13 | 13.64637 | 122.08281 | 16961 ft | 255 kts | 128° |
| 2026-05-08 03:13 | 13.63496 | 122.09679 | 16960 ft | 254 kts | 128° |
| 2026-05-08 03:14 | 13.62360 | 122.11065 | 16963 ft | 254 kts | 128° |
| 2026-05-08 03:14 | 13.61241 | 122.12435 | 16961 ft | 253 kts | 128° |
| 2026-05-08 03:14 | 13.60110 | 122.13815 | 16958 ft | 252 kts | 128° |
| 2026-05-08 03:14 | 13.58979 | 122.15197 | 16960 ft | 252 kts | 128° |
| 2026-05-08 03:15 | 13.57851 | 122.16577 | 16963 ft | 252 kts | 128° |
| 2026-05-08 03:15 | 13.56724 | 122.17952 | 16960 ft | 251 kts | 128° |
| 2026-05-08 03:15 | 13.55599 | 122.19328 | 16957 ft | 251 kts | 128° |
| 2026-05-08 03:15 | 13.54475 | 122.20700 | 16957 ft | 251 kts | 128° |
| 2026-05-08 03:16 | 13.53353 | 122.22071 | 16956 ft | 251 kts | 128° |
| 2026-05-08 03:16 | 13.52225 | 122.23447 | 16958 ft | 253 kts | 127° |
| 2026-05-08 03:16 | 13.51078 | 122.24846 | 16960 ft | 258 kts | 128° |
| 2026-05-08 03:16 | 13.49913 | 122.26268 | 16958 ft | 262 kts | 128° |
| 2026-05-08 03:17 | 13.48731 | 122.27710 | 16958 ft | 266 kts | 128° |
| 2026-05-08 03:17 | 13.47536 | 122.29171 | 16957 ft | 268 kts | 128° |
| 2026-05-08 03:17 | 13.46328 | 122.30641 | 16960 ft | 270 kts | 128° |
| 2026-05-08 03:17 | 13.45113 | 122.32124 | 16959 ft | 272 kts | 128° |
| 2026-05-08 03:18 | 13.43892 | 122.33613 | 16957 ft | 273 kts | 128° |
| 2026-05-08 03:18 | 13.42666 | 122.35108 | 16957 ft | 274 kts | 128° |
| 2026-05-08 03:18 | 13.41440 | 122.36605 | 16958 ft | 274 kts | 128° |
| 2026-05-08 03:18 | 13.40204 | 122.38109 | 16956 ft | 275 kts | 128° |
| 2026-05-08 03:19 | 13.38967 | 122.39617 | 16954 ft | 276 kts | 128° |
| 2026-05-08 03:19 | 13.37733 | 122.41120 | 16955 ft | 276 kts | 128° |
| 2026-05-08 03:19 | 13.36496 | 122.42626 | 16957 ft | 276 kts | 128° |
| 2026-05-08 03:19 | 13.35259 | 122.44135 | 16957 ft | 276 kts | 128° |
| 2026-05-08 03:20 | 13.34019 | 122.45643 | 16960 ft | 276 kts | 128° |
| 2026-05-08 03:20 | 13.33199 | 122.46642 | 16956 ft | 276 kts | 128° |
| 2026-05-08 03:20 | 13.31556 | 122.48644 | 16953 ft | 276 kts | 128° |
| 2026-05-08 03:20 | 13.30315 | 122.50153 | 16957 ft | 276 kts | 128° |
| 2026-05-08 03:21 | 13.29076 | 122.51662 | 16953 ft | 276 kts | 128° |
| 2026-05-08 03:21 | 13.28250 | 122.52666 | 16956 ft | 277 kts | 128° |
| 2026-05-08 03:21 | 13.27008 | 122.54176 | 16955 ft | 277 kts | 128° |
| 2026-05-08 03:21 | 13.25766 | 122.55687 | 16951 ft | 277 kts | 128° |
| 2026-05-08 03:22 | 13.24521 | 122.57202 | 16958 ft | 277 kts | 128° |
| 2026-05-08 03:22 | 13.23278 | 122.58715 | 16957 ft | 277 kts | 128° |
| 2026-05-08 03:22 | 13.22032 | 122.60229 | 16956 ft | 277 kts | 128° |
| 2026-05-08 03:22 | 13.20788 | 122.61741 | 16951 ft | 278 kts | 128° |
| 2026-05-08 03:23 | 13.19540 | 122.63259 | 16953 ft | 278 kts | 128° |
| 2026-05-08 03:23 | 13.18291 | 122.64777 | 16949 ft | 278 kts | 128° |
| 2026-05-08 03:23 | 13.17047 | 122.66289 | 16947 ft | 277 kts | 128° |
| 2026-05-08 03:23 | 13.15798 | 122.67805 | 16954 ft | 277 kts | 128° |
| 2026-05-08 03:24 | 13.14552 | 122.69315 | 16952 ft | 277 kts | 128° |
| 2026-05-08 03:24 | 13.13326 | 122.70805 | 16951 ft | 276 kts | 128° |
| 2026-05-08 03:24 | 13.12084 | 122.72312 | 16951 ft | 276 kts | 128° |
| 2026-05-08 03:24 | 13.10841 | 122.73820 | 16952 ft | 276 kts | 128° |
| 2026-05-08 03:25 | 13.09603 | 122.75325 | 16954 ft | 276 kts | 128° |
| 2026-05-08 03:25 | 13.08363 | 122.76829 | 16951 ft | 276 kts | 128° |
| 2026-05-08 03:25 | 13.07121 | 122.78337 | 16950 ft | 276 kts | 127° |
| 2026-05-08 03:25 | 13.05879 | 122.79841 | 16953 ft | 276 kts | 128° |
| 2026-05-08 03:26 | 13.04639 | 122.81346 | 16952 ft | 276 kts | 128° |
| 2026-05-08 03:26 | 13.03419 | 122.82827 | 16951 ft | 276 kts | 128° |
| 2026-05-08 03:26 | 13.02178 | 122.84330 | 16948 ft | 276 kts | 128° |
| 2026-05-08 03:26 | 13.00940 | 122.85832 | 16952 ft | 276 kts | 127° |
| 2026-05-08 03:27 | 12.99700 | 122.87334 | 16949 ft | 276 kts | 127° |
| 2026-05-08 03:27 | 12.98458 | 122.88839 | 16948 ft | 276 kts | 128° |
| 2026-05-08 03:27 | 12.97222 | 122.90340 | 16952 ft | 276 kts | 128° |
| 2026-05-08 03:27 | 12.95979 | 122.91842 | 16947 ft | 276 kts | 127° |
| 2026-05-08 03:28 | 12.94741 | 122.93341 | 16944 ft | 276 kts | 127° |
| 2026-05-08 03:28 | 12.93503 | 122.94842 | 16947 ft | 276 kts | 128° |
| 2026-05-08 03:28 | 12.92264 | 122.96341 | 16944 ft | 276 kts | 127° |
| 2026-05-08 03:28 | 12.91026 | 122.97841 | 16943 ft | 276 kts | 127° |
| 2026-05-08 03:29 | 12.89784 | 122.99344 | 16946 ft | 276 kts | 128° |
| 2026-05-08 03:29 | 12.88544 | 123.00843 | 16947 ft | 276 kts | 127° |
| 2026-05-08 03:29 | 12.87303 | 123.02348 | 16945 ft | 276 kts | 127° |
| 2026-05-08 03:29 | 12.86062 | 123.03846 | 16945 ft | 276 kts | 127° |
| 2026-05-08 03:30 | 12.83597 | 123.06830 | 16949 ft | 276 kts | 128° |
| 2026-05-08 03:30 | 12.81117 | 123.09827 | 16946 ft | 275 kts | 127° |
| 2026-05-08 03:31 | 12.78635 | 123.12827 | 16945 ft | 276 kts | 127° |
| 2026-05-08 03:31 | 12.76155 | 123.15826 | 16943 ft | 276 kts | 127° |
| 2026-05-08 03:32 | 12.74930 | 123.17302 | 16942 ft | 275 kts | 127° |
| 2026-05-08 03:32 | 12.73691 | 123.18800 | 16941 ft | 275 kts | 127° |
| 2026-05-08 03:32 | 12.72454 | 123.20293 | 16944 ft | 275 kts | 127° |
| 2026-05-08 03:32 | 12.71212 | 123.21794 | 16942 ft | 275 kts | 127° |
| 2026-05-08 03:33 | 12.69974 | 123.23290 | 16939 ft | 275 kts | 127° |
| 2026-05-08 03:33 | 12.68733 | 123.24784 | 16941 ft | 275 kts | 127° |
| 2026-05-08 03:33 | 12.67493 | 123.26281 | 16939 ft | 275 kts | 127° |
| 2026-05-08 03:33 | 12.66257 | 123.27774 | 16942 ft | 275 kts | 127° |
| 2026-05-08 03:34 | 12.65021 | 123.29267 | 16947 ft | 275 kts | 127° |
| 2026-05-08 03:34 | 12.63781 | 123.30758 | 16944 ft | 275 kts | 127° |
| 2026-05-08 03:34 | 12.62544 | 123.32250 | 16945 ft | 275 kts | 127° |
| 2026-05-08 03:34 | 12.61306 | 123.33744 | 16942 ft | 275 kts | 127° |
| 2026-05-08 03:35 | 12.60067 | 123.35237 | 16944 ft | 275 kts | 127° |
| 2026-05-08 03:35 | 12.58832 | 123.36727 | 16944 ft | 274 kts | 127° |
| 2026-05-08 03:35 | 12.57595 | 123.38216 | 16938 ft | 274 kts | 127° |
| 2026-05-08 03:35 | 12.56376 | 123.39685 | 16942 ft | 274 kts | 127° |
| 2026-05-08 03:36 | 12.55141 | 123.41175 | 16944 ft | 274 kts | 127° |
| 2026-05-08 03:36 | 12.53906 | 123.42661 | 16941 ft | 274 kts | 127° |
| 2026-05-08 03:36 | 12.52586 | 123.44252 | 16940 ft | 274 kts | 127° |
| 2026-05-08 03:36 | 12.51352 | 123.45738 | 16941 ft | 274 kts | 127° |
| 2026-05-08 03:37 | 12.50116 | 123.47225 | 16940 ft | 274 kts | 127° |
| 2026-05-08 03:37 | 12.48882 | 123.48713 | 16940 ft | 274 kts | 127° |
| 2026-05-08 03:37 | 12.47645 | 123.50200 | 16938 ft | 274 kts | 127° |
| 2026-05-08 03:37 | 12.46411 | 123.51685 | 16944 ft | 274 kts | 127° |
| 2026-05-08 03:38 | 12.45172 | 123.53173 | 16944 ft | 275 kts | 127° |
| 2026-05-08 03:38 | 12.43931 | 123.54664 | 16947 ft | 275 kts | 127° |
| 2026-05-08 03:38 | 12.42707 | 123.56140 | 16949 ft | 276 kts | 127° |
| 2026-05-08 03:38 | 12.41464 | 123.57633 | 16932 ft | 276 kts | 127° |
| 2026-05-08 03:39 | 12.40219 | 123.59132 | 16933 ft | 276 kts | 127° |
| 2026-05-08 03:39 | 12.38979 | 123.60623 | 16933 ft | 276 kts | 127° |
| 2026-05-08 03:39 | 12.37737 | 123.62111 | 16943 ft | 274 kts | 129° |
| 2026-05-08 03:39 | 12.36159 | 123.63207 | 16947 ft | 281 kts | 155° |
| 2026-05-08 03:40 | 12.34238 | 123.63695 | 16942 ft | 288 kts | 166° |
| 2026-05-08 03:40 | 12.32248 | 123.63982 | 16938 ft | 289 kts | 169° |
| 2026-05-08 03:40 | 12.30251 | 123.64243 | 16940 ft | 290 kts | 168° |
| 2026-05-08 03:40 | 12.28252 | 123.64541 | 16938 ft | 289 kts | 167° |
| 2026-05-08 03:41 | 12.26271 | 123.64887 | 16934 ft | 289 kts | 166° |
| 2026-05-08 03:41 | 12.24290 | 123.65240 | 16943 ft | 289 kts | 166° |
| 2026-05-08 03:41 | 12.22311 | 123.65587 | 16934 ft | 289 kts | 166° |
| 2026-05-08 03:41 | 12.20330 | 123.65934 | 16935 ft | 289 kts | 166° |
| 2026-05-08 03:42 | 12.18371 | 123.66279 | 16941 ft | 289 kts | 166° |
| 2026-05-08 03:42 | 12.16384 | 123.66627 | 16935 ft | 289 kts | 166° |
| 2026-05-08 03:42 | 12.14401 | 123.66974 | 16932 ft | 289 kts | 166° |
| 2026-05-08 03:42 | 12.12421 | 123.67320 | 16935 ft | 288 kts | 166° |
| 2026-05-08 03:43 | 12.10448 | 123.67666 | 16939 ft | 288 kts | 166° |
| 2026-05-08 03:43 | 12.08472 | 123.68011 | 16938 ft | 288 kts | 166° |
| 2026-05-08 03:43 | 12.06496 | 123.68357 | 16934 ft | 288 kts | 166° |
| 2026-05-08 03:43 | 12.04519 | 123.68704 | 16937 ft | 288 kts | 166° |
| 2026-05-08 03:44 | 12.02537 | 123.69050 | 16936 ft | 288 kts | 166° |
| 2026-05-08 03:44 | 12.00562 | 123.69395 | 16937 ft | 288 kts | 166° |
| 2026-05-08 03:44 | 11.98588 | 123.69739 | 16939 ft | 288 kts | 166° |
| 2026-05-08 03:44 | 11.96613 | 123.70084 | 16940 ft | 288 kts | 166° |
| 2026-05-08 03:45 | 11.94640 | 123.70431 | 16935 ft | 287 kts | 166° |
| 2026-05-08 03:45 | 11.92668 | 123.70774 | 16935 ft | 287 kts | 166° |
| 2026-05-08 03:45 | 11.90699 | 123.71120 | 16933 ft | 287 kts | 166° |
| 2026-05-08 03:45 | 11.88730 | 123.71463 | 16932 ft | 287 kts | 166° |
| 2026-05-08 03:46 | 11.86783 | 123.71803 | 16934 ft | 287 kts | 166° |
| 2026-05-08 03:46 | 11.84808 | 123.72147 | 16934 ft | 287 kts | 166° |
| 2026-05-08 03:46 | 11.82834 | 123.72493 | 16931 ft | 287 kts | 166° |
| 2026-05-08 03:46 | 11.80865 | 123.72836 | 16934 ft | 287 kts | 166° |
| 2026-05-08 03:47 | 11.78893 | 123.73181 | 16937 ft | 287 kts | 166° |
| 2026-05-08 03:47 | 11.76924 | 123.73525 | 16935 ft | 287 kts | 166° |
| 2026-05-08 03:47 | 11.74953 | 123.73868 | 16936 ft | 287 kts | 166° |
| 2026-05-08 03:47 | 11.72982 | 123.74213 | 16935 ft | 287 kts | 166° |
| 2026-05-08 03:48 | 11.71012 | 123.74556 | 16938 ft | 287 kts | 166° |
| 2026-05-08 03:48 | 11.69066 | 123.74896 | 16937 ft | 287 kts | 166° |
| 2026-05-08 03:48 | 11.67097 | 123.75239 | 16932 ft | 287 kts | 166° |
| 2026-05-08 03:48 | 11.65124 | 123.75583 | 16932 ft | 287 kts | 166° |
| 2026-05-08 03:49 | 11.63153 | 123.75929 | 16931 ft | 287 kts | 166° |
| 2026-05-08 03:49 | 11.61182 | 123.76271 | 16935 ft | 287 kts | 166° |
| 2026-05-08 03:49 | 11.59215 | 123.76614 | 16936 ft | 287 kts | 166° |
| 2026-05-08 03:49 | 11.57247 | 123.76957 | 16935 ft | 287 kts | 166° |
| 2026-05-08 03:50 | 11.55304 | 123.77295 | 16933 ft | 287 kts | 166° |
| 2026-05-08 03:50 | 11.53338 | 123.77639 | 16935 ft | 287 kts | 166° |
| 2026-05-08 03:50 | 11.51374 | 123.77982 | 16937 ft | 287 kts | 166° |
| 2026-05-08 03:50 | 11.49409 | 123.78323 | 16935 ft | 287 kts | 166° |
| 2026-05-08 03:51 | 11.47443 | 123.78666 | 16936 ft | 287 kts | 166° |
| 2026-05-08 03:51 | 11.45477 | 123.79008 | 16935 ft | 286 kts | 166° |
| 2026-05-08 03:51 | 11.43510 | 123.79350 | 16935 ft | 286 kts | 166° |
| 2026-05-08 03:51 | 11.41548 | 123.79692 | 16934 ft | 286 kts | 166° |
| 2026-05-08 03:52 | 11.39583 | 123.80033 | 16936 ft | 286 kts | 166° |
| 2026-05-08 03:52 | 11.37620 | 123.80376 | 16936 ft | 286 kts | 166° |
| 2026-05-08 03:52 | 11.35658 | 123.80719 | 16933 ft | 286 kts | 166° |
| 2026-05-08 03:52 | 11.33694 | 123.81060 | 16932 ft | 286 kts | 167° |
| 2026-05-08 03:53 | 11.31729 | 123.81402 | 16935 ft | 286 kts | 166° |
| 2026-05-08 03:53 | 11.29763 | 123.81744 | 16929 ft | 286 kts | 167° |
| 2026-05-08 03:53 | 11.27825 | 123.82079 | 16933 ft | 286 kts | 167° |
| 2026-05-08 03:53 | 11.25865 | 123.82421 | 16933 ft | 286 kts | 167° |
| 2026-05-08 03:54 | 11.23904 | 123.82762 | 16931 ft | 286 kts | 167° |
| 2026-05-08 03:54 | 11.21943 | 123.83104 | 16934 ft | 286 kts | 166° |
| 2026-05-08 03:54 | 11.19983 | 123.83446 | 16934 ft | 286 kts | 167° |
| 2026-05-08 03:54 | 11.18015 | 123.83786 | 16935 ft | 286 kts | 167° |
| 2026-05-08 03:55 | 11.16054 | 123.84126 | 16937 ft | 286 kts | 167° |
| 2026-05-08 03:55 | 11.14088 | 123.84444 | 16936 ft | 284 kts | 171° |
| 2026-05-08 03:55 | 11.12103 | 123.84222 | 16935 ft | 291 kts | 191° |
| 2026-05-08 03:55 | 11.10148 | 123.83634 | 16935 ft | 294 kts | 194° |
| 2026-05-08 03:56 | 11.08199 | 123.82992 | 16935 ft | 294 kts | 194° |
| 2026-05-08 03:56 | 11.06241 | 123.82374 | 16935 ft | 294 kts | 193° |
| 2026-05-08 03:56 | 11.04297 | 123.81822 | 16932 ft | 294 kts | 192° |
| 2026-05-08 03:56 | 11.02327 | 123.81282 | 16931 ft | 294 kts | 192° |
| 2026-05-08 03:57 | 11.00355 | 123.80732 | 16935 ft | 294 kts | 192° |
| 2026-05-08 03:57 | 10.98386 | 123.80183 | 16937 ft | 294 kts | 192° |
| 2026-05-08 03:57 | 10.96414 | 123.79633 | 16934 ft | 294 kts | 192° |
| 2026-05-08 03:57 | 10.94433 | 123.79078 | 16935 ft | 294 kts | 192° |
| 2026-05-08 03:58 | 10.92462 | 123.78527 | 16938 ft | 294 kts | 192° |
| 2026-05-08 03:58 | 10.90491 | 123.77979 | 16935 ft | 294 kts | 192° |
| 2026-05-08 03:58 | 10.88522 | 123.77428 | 16937 ft | 294 kts | 192° |
| 2026-05-08 03:58 | 10.86548 | 123.76877 | 16935 ft | 294 kts | 192° |
| 2026-05-08 03:59 | 10.84579 | 123.76329 | 16933 ft | 294 kts | 192° |
| 2026-05-08 03:59 | 10.82603 | 123.75776 | 16933 ft | 294 kts | 192° |
| 2026-05-08 03:59 | 10.80634 | 123.75228 | 16936 ft | 294 kts | 192° |
| 2026-05-08 03:59 | 10.78689 | 123.74683 | 16936 ft | 294 kts | 192° |
| 2026-05-08 04:00 | 10.76719 | 123.74137 | 16938 ft | 294 kts | 192° |
| 2026-05-08 04:00 | 10.74747 | 123.73586 | 16938 ft | 294 kts | 192° |
| 2026-05-08 04:00 | 10.72769 | 123.73035 | 16931 ft | 294 kts | 192° |
| 2026-05-08 04:00 | 10.70796 | 123.72486 | 16938 ft | 294 kts | 192° |
| 2026-05-08 04:01 | 10.68824 | 123.71935 | 16935 ft | 294 kts | 192° |
| 2026-05-08 04:01 | 10.67499 | 123.71566 | 16666 ft | 301 kts | 192° |
| 2026-05-08 04:01 | 10.65484 | 123.71004 | 16249 ft | 299 kts | 192° |
| 2026-05-08 04:01 | 10.63498 | 123.70452 | 15847 ft | 293 kts | 192° |
| 2026-05-08 04:02 | 10.63032 | 123.70323 | 15754 ft | 293 kts | 192° |
| 2026-05-08 04:02 | 10.61153 | 123.69800 | 15375 ft | 293 kts | 193° |
| 2026-05-08 04:02 | 10.59826 | 123.69430 | 15114 ft | 292 kts | 192° |
| 2026-05-08 04:03 | 10.57872 | 123.68886 | 14726 ft | 291 kts | 193° |
| 2026-05-08 04:03 | 10.53971 | 123.67798 | 13966 ft | 290 kts | 193° |
| 2026-05-08 04:03 | 10.52028 | 123.67256 | 13581 ft | 289 kts | 193° |
| 2026-05-08 04:04 | 10.50117 | 123.66726 | 13163 ft | 288 kts | 193° |
| 2026-05-08 04:04 | 10.48182 | 123.66186 | 12746 ft | 288 kts | 193° |
| 2026-05-08 04:04 | 10.46253 | 123.65651 | 12340 ft | 287 kts | 193° |
| 2026-05-08 04:04 | 10.44330 | 123.65115 | 11931 ft | 286 kts | 193° |
| 2026-05-08 04:05 | 10.42406 | 123.64579 | 11535 ft | 286 kts | 192° |
| 2026-05-08 04:05 | 10.40511 | 123.64051 | 11146 ft | 279 kts | 192° |
| 2026-05-08 04:05 | 10.38650 | 123.63535 | 10760 ft | 274 kts | 192° |
| 2026-05-08 04:05 | 10.36828 | 123.63040 | 10390 ft | 267 kts | 189° |
| 2026-05-08 04:06 | 10.35042 | 123.63131 | 10038 ft | 254 kts | 158° |
| 2026-05-08 04:06 | 10.33461 | 123.63865 | 9697 ft | 248 kts | 147° |
| 2026-05-08 04:06 | 10.32072 | 123.64842 | 9337 ft | 244 kts | 137° |
| 2026-05-08 04:06 | 10.30845 | 123.66015 | 8968 ft | 241 kts | 131° |
| 2026-05-08 04:07 | 10.29695 | 123.67245 | 8603 ft | 238 kts | 130° |
| 2026-05-08 04:07 | 10.28562 | 123.68467 | 8265 ft | 237 kts | 130° |
| 2026-05-08 04:07 | 10.27427 | 123.69671 | 7927 ft | 235 kts | 131° |
| 2026-05-08 04:07 | 10.26276 | 123.70853 | 7594 ft | 235 kts | 132° |
| 2026-05-08 04:08 | 10.25512 | 123.71633 | 7363 ft | 235 kts | 132° |
| 2026-05-08 04:08 | 10.24565 | 123.72594 | 7091 ft | 234 kts | 133° |
| 2026-05-08 04:08 | 10.23416 | 123.73764 | 6749 ft | 233 kts | 133° |
| 2026-05-08 04:08 | 10.22265 | 123.74921 | 6427 ft | 233 kts | 133° |
| 2026-05-08 04:09 | 10.21114 | 123.76076 | 6102 ft | 233 kts | 133° |
| 2026-05-08 04:09 | 10.19958 | 123.77236 | 5732 ft | 233 kts | 132° |
| 2026-05-08 04:09 | 10.18813 | 123.78393 | 5375 ft | 232 kts | 132° |
| 2026-05-08 04:09 | 10.17675 | 123.79552 | 5036 ft | 231 kts | 132° |
| 2026-05-08 04:10 | 10.16592 | 123.80743 | 4632 ft | 227 kts | 121° |
| 2026-05-08 04:10 | 10.16232 | 123.82247 | 4230 ft | 214 kts | 84° |
| 2026-05-08 04:10 | 10.16738 | 123.83535 | 3889 ft | 189 kts | 60° |
| 2026-05-08 04:10 | 10.17467 | 123.84577 | 3580 ft | 174 kts | 54° |
| 2026-05-08 04:11 | 10.18246 | 123.85463 | 3293 ft | 163 kts | 49° |
| 2026-05-08 04:11 | 10.19022 | 123.86250 | 3024 ft | 157 kts | 47° |
| 2026-05-08 04:11 | 10.19868 | 123.87067 | 2750 ft | 177 kts | 46° |
| 2026-05-08 04:11 | 10.20779 | 123.87954 | 2451 ft | 182 kts | 46° |
| 2026-05-08 04:12 | 10.21656 | 123.88816 | 2294 ft | 170 kts | 46° |
| 2026-05-08 04:12 | 10.22452 | 123.89604 | 2075 ft | 152 kts | 46° |
| 2026-05-08 04:12 | 10.23184 | 123.90330 | 1848 ft | 143 kts | 47° |
| 2026-05-08 04:12 | 10.23873 | 123.91008 | 1660 ft | 133 kts | 47° |
| 2026-05-08 04:13 | 10.24380 | 123.91491 | 1477 ft | 89 kts | 49° |
| 2026-05-08 04:13 | 10.24810 | 123.91934 | 1358 ft | 89 kts | 51° |
| 2026-05-08 04:13 | 10.25239 | 123.92388 | 1264 ft | 90 kts | 48° |
| 2026-05-08 04:13 | 10.25689 | 123.92826 | 1125 ft | 88 kts | 49° |
| 2026-05-08 04:14 | 10.26106 | 123.93252 | 1057 ft | 86 kts | 48° |
| 2026-05-08 04:14 | 10.26550 | 123.93710 | 1088 ft | 93 kts | 47° |
| 2026-05-08 04:14 | 10.27022 | 123.94171 | 1188 ft | 96 kts | 47° |
| 2026-05-08 04:14 | 10.27506 | 123.94659 | 1136 ft | 98 kts | 49° |
| 2026-05-08 04:15 | 10.27905 | 123.95057 | 178 ft | 148 kts | 45° |
| 2026-05-08 04:15 | 10.28534 | 123.95660 | 727 ft | 102 kts | 46° |
| 2026-05-08 04:15 | 10.29002 | 123.96168 | 530 ft | 95 kts | 52° |
| 2026-05-08 04:15 | 10.29446 | 123.96643 | 210 ft | 92 kts | 47° |
| 2026-05-08 04:16 | 10.29885 | 123.97074 | 33 ft | 82 kts | 39° |
| 2026-05-08 04:16 | 10.30181 | 123.97367 | 32 ft | 24 kts | 44° |
| 2026-05-08 04:16 | 10.30274 | 123.97460 | 33 ft | 21 kts | 43° |